Time;durP1;ratioP1;P1;durP2;ratioP2;P2;SDS_P1;SDS_P2;PMS_P1;PMS_P2;Temp;Humidity;BMP_temperature;BMP_pressure;BME280_temperature;BME280_humidity;BME280_pressure;Samples;Min_cycle;Max_cycle;Signal;HPM_P1;HPM_P2
2022/07/31 00:00:53;;;;;;;41.87;25.50;;;;;;;-144.27;100.00;69759.91;2058103;28;20540;-78
2022/07/31 00:01:55;;;;;;;40.50;24.90;;;;;;;-144.27;100.00;69759.91;2059041;28;20441;-78
2022/07/31 00:02:56;;;;;;;41.53;26.23;;;;;;;-144.27;100.00;69759.91;2067293;28;20538;-78
2022/07/31 00:03:57;;;;;;;39.07;24.30;;;;;;;-144.27;100.00;69759.91;2058923;28;20497;-78
2022/07/31 00:04:58;;;;;;;42.83;24.40;;;;;;;-144.27;100.00;69759.91;2058973;28;20428;-78
2022/07/31 00:06:00;;;;;;;40.97;24.53;;;;;;;-144.27;100.00;69759.91;2066455;28;20438;-77
2022/07/31 00:07:01;;;;;;;40.43;25.37;;;;;;;-144.27;100.00;69759.91;2067869;28;20177;-78
2022/07/31 00:08:04;;;;;;;42.63;24.53;;;;;;;-144.27;100.00;69759.91;2066512;28;20467;-78
2022/07/31 00:09:04;;;;;;;41.83;25.13;;;;;;;-144.27;100.00;69759.91;2067181;28;20552;-78
2022/07/31 00:10:07;;;;;;;40.07;25.60;;;;;;;-144.27;100.00;69759.91;2067616;28;20463;-78
2022/07/31 00:11:10;;;;;;;42.30;26.43;;;;;;;-144.27;100.00;69759.91;2066592;28;20636;-78
2022/07/31 00:12:14;;;;;;;38.87;25.10;;;;;;;-144.27;100.00;69759.91;2067064;28;20515;-78
2022/07/31 00:13:15;;;;;;;47.50;26.47;;;;;;;-144.27;100.00;69759.91;2067120;28;20436;-78
2022/07/31 00:14:17;;;;;;;41.03;25.43;;;;;;;-144.27;100.00;69759.91;2066614;28;20451;-78
2022/07/31 00:15:18;;;;;;;40.17;25.73;;;;;;;-144.27;100.00;69759.91;2059276;28;20221;-78
2022/07/31 00:16:19;;;;;;;43.30;25.87;;;;;;;-144.27;100.00;69759.91;2067325;28;20519;-78
2022/07/31 00:17:20;;;;;;;43.27;26.20;;;;;;;-144.27;100.00;69759.91;2067920;28;20189;-78
2022/07/31 00:18:22;;;;;;;43.37;24.87;;;;;;;-144.27;100.00;69759.91;2067259;28;20478;-78
2022/07/31 00:19:23;;;;;;;37.87;24.43;;;;;;;-144.27;100.00;69759.91;2058652;28;20201;-77
2022/07/31 00:20:24;;;;;;;40.10;23.70;;;;;;;-144.27;100.00;69759.91;2058950;28;20441;-79
2022/07/31 00:21:26;;;;;;;36.67;23.87;;;;;;;-144.27;100.00;69759.91;2057986;28;20449;-78
2022/07/31 00:22:26;;;;;;;40.73;24.60;;;;;;;-144.27;100.00;69759.91;2051012;28;20222;-78
2022/07/31 00:23:28;;;;;;;37.20;24.03;;;;;;;-144.27;100.00;69759.91;2050288;28;20442;-78
2022/07/31 00:24:29;;;;;;;36.47;23.90;;;;;;;-144.27;100.00;69759.91;2058585;28;20616;-79
2022/07/31 00:25:31;;;;;;;37.27;23.17;;;;;;;-144.27;100.00;69759.91;2058978;28;20464;-78
2022/07/31 00:26:32;;;;;;;37.73;24.03;;;;;;;-144.27;100.00;69759.91;2058614;28;20205;-78
2022/07/31 00:27:35;;;;;;;38.27;23.73;;;;;;;-144.27;100.00;69759.91;2067493;28;20507;-78
2022/07/31 00:28:36;;;;;;;35.70;23.27;;;;;;;-144.27;100.00;69759.91;2067320;28;20284;-78
2022/07/31 00:29:37;;;;;;;35.27;23.40;;;;;;;-144.27;100.00;69759.91;2067207;28;20428;-78
2022/07/31 00:30:38;;;;;;;35.47;22.17;;;;;;;-144.27;100.00;69759.91;2067011;28;20204;-79
2022/07/31 00:31:39;;;;;;;38.17;23.13;;;;;;;-144.27;100.00;69759.91;2066359;28;20494;-78
2022/07/31 00:32:41;;;;;;;34.87;23.00;;;;;;;-144.27;100.00;69759.91;2050536;28;20202;-78
2022/07/31 00:33:43;;;;;;;31.83;21.00;;;;;;;-144.27;100.00;69759.91;2051159;28;20438;-78
2022/07/31 00:34:47;;;;;;;29.63;21.20;;;;;;;-144.27;100.00;69759.91;2058335;28;20804;-79
2022/07/31 00:35:51;;;;;;;31.77;22.17;;;;;;;-144.27;100.00;69759.91;2066373;28;20468;-78
2022/07/31 00:36:52;;;;;;;27.67;21.33;;;;;;;-144.27;100.00;69759.91;2058814;28;20452;-78
2022/07/31 00:37:53;;;;;;;31.20;20.20;;;;;;;-144.27;100.00;69759.91;2067286;28;20425;-78
2022/07/31 00:38:54;;;;;;;27.40;20.20;;;;;;;-144.27;100.00;69759.91;2066596;28;20228;-78
2022/07/31 00:39:56;;;;;;;25.30;19.27;;;;;;;-144.27;100.00;69759.91;2066572;28;20436;-79
2022/07/31 00:40:58;;;;;;;25.70;19.37;;;;;;;-144.27;100.00;69759.91;2051159;28;20285;-78
2022/07/31 00:42:02;;;;;;;27.40;19.03;;;;;;;-144.27;100.00;69759.91;2050552;28;20441;-78
2022/07/31 00:43:04;;;;;;;28.27;19.47;;;;;;;-144.27;100.00;69759.91;2050276;28;20457;-78
2022/07/31 00:44:06;;;;;;;29.03;19.47;;;;;;;-144.27;100.00;69759.91;2058394;28;20963;-78
2022/07/31 00:45:08;;;;;;;25.40;19.07;;;;;;;-144.27;100.00;69759.91;2066723;28;20452;-78
2022/07/31 00:46:11;;;;;;;25.27;18.50;;;;;;;-144.27;100.00;69759.91;2050846;28;20876;-78
2022/07/31 00:47:12;;;;;;;23.00;17.53;;;;;;;-144.27;100.00;69759.91;2059099;28;20530;-79
2022/07/31 00:48:14;;;;;;;22.57;18.43;;;;;;;-144.27;100.00;69759.91;2058575;28;20803;-79
2022/07/31 00:49:16;;;;;;;24.47;17.70;;;;;;;-144.27;100.00;69759.91;2050916;29;20468;-78
2022/07/31 00:50:18;;;;;;;25.43;17.10;;;;;;;-144.27;100.00;69759.91;2051001;28;20446;-78
2022/07/31 00:51:19;;;;;;;22.50;17.40;;;;;;;-144.27;100.00;69759.91;2058801;28;20469;-78
2022/07/31 00:52:20;;;;;;;23.70;17.20;;;;;;;-144.27;100.00;69759.91;2058843;28;20890;-78
2022/07/31 00:53:21;;;;;;;18.50;16.57;;;;;;;-144.27;100.00;69759.91;2050644;28;20357;-78
2022/07/31 00:54:24;;;;;;;20.60;17.93;;;;;;;-144.27;100.00;69759.91;2050818;29;20441;-78
2022/07/31 00:55:27;;;;;;;23.37;17.70;;;;;;;-144.27;100.00;69759.91;2050282;28;20202;-79
2022/07/31 00:56:29;;;;;;;26.03;17.20;;;;;;;-144.27;100.00;69759.91;2058603;28;20531;-78
2022/07/31 00:57:30;;;;;;;27.00;16.70;;;;;;;-144.27;100.00;69759.91;2058827;28;20438;-78
2022/07/31 00:58:33;;;;;;;19.37;16.40;;;;;;;-144.27;100.00;69759.91;2058536;28;20441;-78
2022/07/31 00:59:34;;;;;;;22.73;16.33;;;;;;;-144.27;100.00;69759.91;2059073;28;20209;-78
2022/07/31 01:00:35;;;;;;;21.03;16.63;;;;;;;-144.27;100.00;69759.91;2066896;28;20440;-78
2022/07/31 01:01:37;;;;;;;28.57;16.07;;;;;;;-144.27;100.00;69759.91;2066286;28;20209;-78
2022/07/31 01:02:38;;;;;;;20.17;16.97;;;;;;;-144.27;100.00;69759.91;2058819;28;20456;-78
2022/07/31 01:03:41;;;;;;;21.07;16.80;;;;;;;-144.27;100.00;69759.91;2058513;28;20455;-78
2022/07/31 01:04:42;;;;;;;21.53;17.03;;;;;;;-144.27;100.00;69759.91;2050857;28;20199;-78
2022/07/31 01:05:44;;;;;;;21.83;16.63;;;;;;;-144.27;100.00;69759.91;2058794;28;20457;-78
2022/07/31 01:06:45;;;;;;;20.20;15.27;;;;;;;-144.27;100.00;69759.91;2065938;28;20221;-79
2022/07/31 01:07:48;;;;;;;19.13;15.43;;;;;;;-144.27;100.00;69759.91;2059092;28;20468;-78
2022/07/31 01:08:50;;;;;;;20.63;15.77;;;;;;;-144.27;100.00;69759.91;2058752;28;20452;-78
2022/07/31 01:09:52;;;;;;;18.30;15.67;;;;;;;-144.27;100.00;69759.91;2058125;28;20464;-79
2022/07/31 01:10:57;;;;;;;16.93;14.53;;;;;;;-144.27;100.00;69759.91;2050435;28;20445;-78
2022/07/31 01:12:02;;;;;;;18.37;15.60;;;;;;;-144.27;100.00;69759.91;2058369;28;20445;-78
2022/07/31 01:13:08;;;;;;;23.50;14.97;;;;;;;-144.27;100.00;69759.91;2052197;28;20505;-78
2022/07/31 01:14:11;;;;;;;19.93;15.60;;;;;;;-144.27;100.00;69759.91;2050939;28;20442;-78
2022/07/31 01:15:15;;;;;;;18.33;15.20;;;;;;;-144.27;100.00;69759.91;2049866;28;20481;-78
2022/07/31 01:16:18;;;;;;;21.93;14.67;;;;;;;-144.27;100.00;69759.91;2057796;28;20444;-79
2022/07/31 01:17:21;;;;;;;16.93;14.67;;;;;;;-144.27;100.00;69759.91;2065769;28;20951;-78
2022/07/31 01:18:24;;;;;;;16.73;15.00;;;;;;;-144.27;100.00;69759.91;2057413;28;20568;-78
2022/07/31 01:19:32;;;;;;;19.53;14.67;;;;;;;-144.27;100.00;69759.91;2049682;28;20890;-78
2022/07/31 01:20:35;;;;;;;17.13;14.20;;;;;;;-144.27;100.00;69759.91;2057628;28;20931;-79
2022/07/31 01:21:42;;;;;;;17.25;14.77;;;;;;;-144.27;100.00;69759.91;2057264;28;20520;-78
2022/07/31 01:22:56;;;;;;;21.10;15.33;;;;;;;-144.27;100.00;69759.91;2057448;28;20210;-78
2022/07/31 01:24:24;;;;;;;16.33;14.57;;;;;;;-144.27;100.00;69759.91;2057847;28;20452;-78
2022/07/31 01:25:39;;;;;;;17.40;14.87;;;;;;;-144.27;100.00;69759.91;2053811;28;20292;-78
2022/07/31 01:26:54;;;;;;;19.17;14.50;;;;;;;-144.27;100.00;69759.91;2059606;28;20429;-78
2022/07/31 01:28:03;;;;;;;16.07;14.20;;;;;;;-144.27;100.00;69759.91;2057336;28;20480;-78
2022/07/31 01:29:16;;;;;;;20.30;14.80;;;;;;;-144.27;100.00;69759.91;2050945;28;20442;-77
2022/07/31 01:30:17;;;;;;;20.07;15.57;;;;;;;-144.27;100.00;69759.91;2057774;28;20414;-77
2022/07/31 01:31:22;;;;;;;15.73;13.70;;;;;;;-144.27;100.00;69759.91;2065462;28;20444;-77
2022/07/31 01:32:25;;;;;;;16.20;14.43;;;;;;;-144.27;100.00;69759.91;2057342;28;20492;-78
2022/07/31 01:33:32;;;;;;;15.83;13.93;;;;;;;-144.27;100.00;69759.91;2050131;28;20453;-77
2022/07/31 01:34:37;;;;;;;16.83;15.10;;;;;;;-144.27;100.00;69759.91;2057504;28;20531;-78
2022/07/31 01:35:47;;;;;;;18.23;14.67;;;;;;;-144.27;100.00;69759.91;2057605;28;20755;-78
2022/07/31 01:36:54;;;;;;;16.23;14.53;;;;;;;-144.27;100.00;69759.91;2065140;28;20468;-78
2022/07/31 01:38:01;;;;;;;16.67;14.87;;;;;;;-144.27;100.00;69759.91;2064559;28;20452;-78
2022/07/31 01:39:04;;;;;;;16.33;14.20;;;;;;;-144.27;100.00;69759.91;2050368;28;20442;-77
2022/07/31 01:40:12;;;;;;;18.17;15.00;;;;;;;-144.27;100.00;69759.91;2049675;28;20194;-78
2022/07/31 01:41:17;;;;;;;16.50;14.63;;;;;;;-144.27;100.00;69759.91;2050400;28;21014;-78
2022/07/31 01:42:20;;;;;;;20.43;15.40;;;;;;;-144.27;100.00;69759.91;2049574;28;21020;-78
2022/07/31 01:43:24;;;;;;;18.07;14.73;;;;;;;-144.27;100.00;69759.91;2049588;28;20453;-78
2022/07/31 01:44:28;;;;;;;21.07;15.50;;;;;;;-144.27;100.00;69759.91;2049904;28;20505;-77
2022/07/31 01:45:30;;;;;;;18.77;15.40;;;;;;;-144.27;100.00;69759.91;2049433;28;20458;-78
2022/07/31 01:46:34;;;;;;;16.10;14.17;;;;;;;-144.27;100.00;69759.91;2049564;28;20456;-77
2022/07/31 01:47:34;;;;;;;17.13;15.37;;;;;;;-144.27;100.00;69759.91;2049479;28;20453;-78
2022/07/31 01:48:39;;;;;;;21.10;14.83;;;;;;;-144.27;100.00;69759.91;2057401;28;20421;-77
2022/07/31 01:49:41;;;;;;;19.40;14.70;;;;;;;-144.27;100.00;69759.91;2065101;28;20455;-77
2022/07/31 01:50:44;;;;;;;17.23;14.47;;;;;;;-144.27;100.00;69759.91;2065128;28;20448;-77
2022/07/31 01:51:47;;;;;;;19.40;15.03;;;;;;;-144.27;100.00;69759.91;2049192;28;20464;-78
2022/07/31 01:52:49;;;;;;;18.80;14.43;;;;;;;-144.27;100.00;69759.91;2049983;28;20457;-77
2022/07/31 01:53:52;;;;;;;16.42;14.35;;;;;;;-144.27;100.00;69759.91;2049383;28;20445;-77
2022/07/31 01:54:54;;;;;;;15.53;14.07;;;;;;;-144.27;100.00;69759.91;2057594;28;20307;-77
2022/07/31 01:55:57;;;;;;;15.00;13.50;;;;;;;-144.27;100.00;69759.91;2057430;28;20850;-77
2022/07/31 01:57:00;;;;;;;20.20;13.43;;;;;;;-144.27;100.00;69759.91;2049474;28;20476;-77
2022/07/31 01:58:01;;;;;;;16.67;14.30;;;;;;;-144.27;100.00;69759.91;2049765;28;20821;-77
2022/07/31 01:59:05;;;;;;;18.63;13.17;;;;;;;-144.27;100.00;69759.91;2049593;28;20890;-78
2022/07/31 02:00:19;;;;;;;16.67;12.73;;;;;;;-144.27;100.00;69759.91;2057602;28;20943;-78
2022/07/31 02:01:25;;;;;;;14.93;12.20;;;;;;;-144.27;100.00;69759.91;2057979;28;20484;-78
2022/07/31 02:02:28;;;;;;;16.10;11.38;;;;;;;-144.27;100.00;69759.91;2057362;28;20548;-78
2022/07/31 02:03:31;;;;;;;16.23;12.53;;;;;;;-144.27;100.00;69759.91;2049478;28;20205;-78
2022/07/31 02:04:33;;;;;;;14.63;11.90;;;;;;;-144.27;100.00;69759.91;2057210;28;20452;-78
2022/07/31 02:05:35;;;;;;;14.63;12.37;;;;;;;-144.27;100.00;69759.91;2049501;28;20448;-78
2022/07/31 02:06:37;;;;;;;13.13;11.90;;;;;;;-144.27;100.00;69759.91;2056924;28;20452;-78
2022/07/31 02:07:41;;;;;;;15.20;12.45;;;;;;;-144.27;100.00;69759.91;2065047;28;20994;-79
2022/07/31 02:08:44;;;;;;;14.40;11.60;;;;;;;-144.27;100.00;69759.91;2049660;28;20198;-78
2022/07/31 02:09:50;;;;;;;12.03;10.93;;;;;;;-144.27;100.00;69759.91;2057501;28;20986;-78
2022/07/31 02:10:51;;;;;;;13.93;10.37;;;;;;;-144.27;100.00;69759.91;2057214;28;20452;-78
2022/07/31 02:11:54;;;;;;;12.03;10.77;;;;;;;-144.27;100.00;69759.91;2049371;28;20489;-78
2022/07/31 02:12:55;;;;;;;11.17;10.20;;;;;;;-144.27;100.00;69759.91;2049405;28;20446;-78
2022/07/31 02:13:57;;;;;;;11.07;10.17;;;;;;;-144.27;100.00;69759.91;2057247;28;20544;-78
2022/07/31 02:15:01;;;;;;;15.00;11.10;;;;;;;-144.27;100.00;69759.91;2065150;28;20491;-79
2022/07/31 02:16:05;;;;;;;11.80;10.60;;;;;;;-144.27;100.00;69759.91;2064878;28;20452;-78
2022/07/31 02:17:10;;;;;;;12.40;11.10;;;;;;;-144.27;100.00;69759.91;2049728;28;20475;-78
2022/07/31 02:18:32;;;;;;;11.70;10.50;;;;;;;-144.27;100.00;69759.91;2057220;28;20476;-78
2022/07/31 02:19:48;;;;;;;11.00;9.90;;;;;;;-144.27;100.00;69759.91;2065163;28;20440;-78
2022/07/31 02:20:50;;;;;;;11.30;10.20;;;;;;;-144.27;100.00;69759.91;2057368;28;20452;-78
2022/07/31 02:21:50;;;;;;;11.18;10.15;;;;;;;-144.27;100.00;69759.91;2058367;28;20467;-79
2022/07/31 02:22:53;;;;;;;12.03;10.30;;;;;;;-144.27;100.00;69759.91;2058833;28;20272;-79
2022/07/31 02:23:55;;;;;;;11.03;10.07;;;;;;;-144.27;100.00;69759.91;2059020;28;20189;-79
2022/07/31 02:24:57;;;;;;;11.53;10.43;;;;;;;-144.27;100.00;69759.91;2066590;28;20440;-79
2022/07/31 02:25:57;;;;;;;16.10;10.27;;;;;;;-144.27;100.00;69759.91;2050780;28;20450;-79
2022/07/31 02:27:00;;;;;;;11.77;10.40;;;;;;;-144.27;100.00;69759.91;2059025;28;20457;-78
2022/07/31 02:28:02;;;;;;;11.00;10.10;;;;;;;-144.27;100.00;69759.91;2059570;28;20206;-78
2022/07/31 02:29:05;;;;;;;13.90;9.90;;;;;;;-144.27;100.00;69759.91;2066829;28;20969;-79
2022/07/31 02:30:10;;;;;;;11.57;10.20;;;;;;;-144.27;100.00;69759.91;2066737;28;20456;-79
2022/07/31 02:31:13;;;;;;;11.23;10.20;;;;;;;-144.27;100.00;69759.91;2059026;28;20852;-79
2022/07/31 02:32:16;;;;;;;15.47;10.17;;;;;;;-144.27;100.00;69759.91;2067157;28;20480;-79
2022/07/31 02:33:20;;;;;;;11.60;10.07;;;;;;;-144.27;100.00;69759.91;2066719;28;20490;-79
2022/07/31 02:34:22;;;;;;;10.87;9.97;;;;;;;-144.27;100.00;69759.91;2051129;28;20549;-79
2022/07/31 02:35:25;;;;;;;10.17;9.37;;;;;;;-144.27;100.00;69759.91;2050692;28;20437;-79
2022/07/31 02:36:27;;;;;;;10.60;9.60;;;;;;;-144.27;100.00;69759.91;2050522;28;20468;-79
2022/07/31 02:37:30;;;;;;;10.70;9.63;;;;;;;-144.27;100.00;69759.91;2058936;28;20453;-79
2022/07/31 02:38:32;;;;;;;10.73;9.60;;;;;;;-144.27;100.00;69759.91;2058613;28;20457;-79
2022/07/31 02:39:35;;;;;;;10.53;9.60;;;;;;;-144.27;100.00;69759.91;2050884;28;20517;-79
2022/07/31 02:40:37;;;;;;;10.93;9.13;;;;;;;-144.27;100.00;69759.91;2051126;28;20445;-78
2022/07/31 02:41:39;;;;;;;9.80;8.90;;;;;;;-144.27;100.00;69759.91;2058771;28;20916;-78
2022/07/31 02:42:40;;;;;;;9.97;8.90;;;;;;;-144.27;100.00;69759.91;2066806;28;20814;-78
2022/07/31 02:43:46;;;;;;;12.83;9.50;;;;;;;-144.27;100.00;69759.91;2066598;28;20432;-78
2022/07/31 02:44:54;;;;;;;9.87;8.90;;;;;;;-144.27;100.00;69759.91;2052157;28;20541;-79
2022/07/31 02:45:56;;;;;;;9.60;8.80;;;;;;;-144.27;100.00;69759.91;2050812;28;20442;-78
2022/07/31 02:47:01;;;;;;;10.17;9.07;;;;;;;-144.27;100.00;69759.91;2050712;28;20544;-78
2022/07/31 02:48:04;;;;;;;10.53;9.47;;;;;;;-144.27;100.00;69759.91;2051487;28;20429;-78
2022/07/31 02:49:04;;;;;;;11.20;9.10;;;;;;;-144.27;100.00;69759.91;2050799;28;20484;-79
2022/07/31 02:50:09;;;;;;;9.33;8.43;;;;;;;-144.27;100.00;69759.91;2050895;28;20489;-78
2022/07/31 02:51:13;;;;;;;9.40;8.60;;;;;;;-144.27;100.00;69759.91;2050970;28;20460;-78
2022/07/31 02:52:16;;;;;;;9.90;9.00;;;;;;;-144.27;100.00;69759.91;2050834;28;20851;-79
2022/07/31 02:53:17;;;;;;;9.60;8.60;;;;;;;-144.27;100.00;69759.91;2050628;28;20456;-78
2022/07/31 02:54:18;;;;;;;9.73;8.80;;;;;;;-144.27;100.00;69759.91;2058552;28;20441;-79
2022/07/31 02:55:19;;;;;;;10.97;9.37;;;;;;;-144.27;100.00;69759.91;2066602;28;20447;-79
2022/07/31 02:56:22;;;;;;;9.00;8.23;;;;;;;-144.27;100.00;69759.91;2050651;29;20513;-79
2022/07/31 02:57:25;;;;;;;9.53;8.67;;;;;;;-144.27;100.00;69759.91;2050645;28;20199;-78
2022/07/31 02:58:27;;;;;;;9.07;8.17;;;;;;;-144.27;100.00;69759.91;2050965;28;20438;-78
2022/07/31 02:59:28;;;;;;;8.83;8.13;;;;;;;-144.27;100.00;69759.91;2050640;28;20450;-78
2022/07/31 03:00:34;;;;;;;8.57;7.93;;;;;;;-144.27;100.00;69759.91;2050994;28;20438;-79
2022/07/31 03:01:35;;;;;;;8.80;8.00;;;;;;;-144.27;100.00;69759.91;2050933;28;20544;-78
2022/07/31 03:02:38;;;;;;;8.00;7.40;;;;;;;-144.27;100.00;69759.91;2050446;29;20449;-78
2022/07/31 03:03:41;;;;;;;8.83;7.93;;;;;;;-144.27;100.00;69759.91;2050870;28;20257;-79
2022/07/31 03:04:45;;;;;;;8.50;7.90;;;;;;;-144.27;100.00;69759.91;2058447;28;20492;-79
2022/07/31 03:05:47;;;;;;;8.40;7.80;;;;;;;-144.27;100.00;69759.91;2050941;28;20442;-78
2022/07/31 03:06:49;;;;;;;7.90;7.30;;;;;;;-144.27;100.00;69759.91;2058268;28;20507;-78
2022/07/31 03:07:50;;;;;;;7.70;7.10;;;;;;;-144.27;100.00;69759.91;2066497;28;20505;-78
2022/07/31 03:08:51;;;;;;;8.67;7.87;;;;;;;-144.27;100.00;69759.91;2066460;28;20883;-78
2022/07/31 03:09:56;;;;;;;8.23;7.73;;;;;;;-144.27;100.00;69759.91;2066499;28;20268;-79
2022/07/31 03:11:13;;;;;;;7.93;7.33;;;;;;;-144.27;100.00;69759.91;2064422;28;20495;-78
2022/07/31 03:12:16;;;;;;;7.77;7.20;;;;;;;-144.27;100.00;69759.91;2050690;28;20504;-79
2022/07/31 03:13:19;;;;;;;7.87;7.37;;;;;;;-144.27;100.00;69759.91;2058449;28;20445;-79
2022/07/31 03:14:20;;;;;;;8.43;7.60;;;;;;;-144.27;100.00;69759.91;2066319;28;20440;-78
2022/07/31 03:15:23;;;;;;;8.23;7.63;;;;;;;-144.27;100.00;69759.91;2058350;28;20453;-79
2022/07/31 03:16:25;;;;;;;7.77;7.30;;;;;;;-144.27;100.00;69759.91;2066465;28;20502;-78
2022/07/31 03:17:28;;;;;;;7.60;7.10;;;;;;;-144.27;100.00;69759.91;2066476;28;20519;-79
2022/07/31 03:18:37;;;;;;;7.57;6.63;;;;;;;-144.27;100.00;69759.91;2066238;28;20907;-78
2022/07/31 03:19:38;;;;;;;7.57;6.80;;;;;;;-144.27;100.00;69759.91;2066119;28;20401;-78
2022/07/31 03:20:42;;;;;;;9.17;7.20;;;;;;;-144.27;100.00;69759.91;2066406;28;20917;-78
2022/07/31 03:21:45;;;;;;;7.40;6.80;;;;;;;-144.27;100.00;69759.91;2066009;28;20511;-78
2022/07/31 03:22:45;;;;;;;7.23;6.53;;;;;;;-144.27;100.00;69759.91;2050466;28;20209;-79
2022/07/31 03:23:48;;;;;;;7.43;6.93;;;;;;;-144.27;100.00;69759.91;2050407;28;20442;-79
2022/07/31 03:24:56;;;;;;;6.50;6.20;;;;;;;-144.27;100.00;69759.91;2051578;28;20434;-78
2022/07/31 03:26:00;;;;;;;7.40;6.80;;;;;;;-144.27;100.00;69759.91;2050797;28;20498;-78
2022/07/31 03:27:01;;;;;;;7.30;6.70;;;;;;;-144.27;100.00;69759.91;2058596;28;20433;-78
2022/07/31 03:28:03;;;;;;;7.80;7.20;;;;;;;-144.27;100.00;69759.91;2058211;28;20525;-79
2022/07/31 03:29:03;;;;;;;7.40;6.90;;;;;;;-144.27;100.00;69759.91;2050308;28;20206;-79
2022/07/31 03:30:06;;;;;;;8.00;7.30;;;;;;;-144.27;100.00;69759.91;2050385;29;20448;-79
2022/07/31 03:31:09;;;;;;;7.67;7.10;;;;;;;-144.27;100.00;69759.91;2058401;28;20197;-79
2022/07/31 03:32:14;;;;;;;7.17;6.60;;;;;;;-144.27;100.00;69759.91;2066210;28;20598;-78
2022/07/31 03:33:15;;;;;;;7.17;6.77;;;;;;;-144.27;100.00;69759.91;2065805;28;20471;-79
2022/07/31 03:34:18;;;;;;;7.50;7.10;;;;;;;-144.27;100.00;69759.91;2058278;28;20441;-78
2022/07/31 03:35:19;;;;;;;7.47;7.00;;;;;;;-144.27;100.00;69759.91;2050533;28;20198;-79
2022/07/31 03:36:20;;;;;;;7.60;7.10;;;;;;;-144.27;100.00;69759.91;2057803;28;20536;-79
2022/07/31 03:37:22;;;;;;;8.20;7.70;;;;;;;-144.27;100.00;69759.91;2058903;28;20225;-78
2022/07/31 03:38:24;;;;;;;7.27;6.70;;;;;;;-144.27;100.00;69759.91;2066265;28;20528;-79
2022/07/31 03:39:26;;;;;;;7.17;6.67;;;;;;;-144.27;100.00;69759.91;2066057;28;20946;-79
2022/07/31 03:40:32;;;;;;;7.60;7.10;;;;;;;-144.27;100.00;69759.91;2066603;28;20475;-79
2022/07/31 03:41:34;;;;;;;7.23;6.50;;;;;;;-144.27;100.00;69759.91;2066236;28;20503;-79
2022/07/31 03:42:35;;;;;;;7.30;6.90;;;;;;;-144.27;100.00;69759.91;2058621;28;20232;-78
2022/07/31 03:43:38;;;;;;;7.40;6.90;;;;;;;-144.27;100.00;69759.91;2058174;28;20464;-78
2022/07/31 03:44:40;;;;;;;7.77;6.80;;;;;;;-144.27;100.00;69759.91;2058490;28;20429;-78
2022/07/31 03:45:45;;;;;;;7.00;6.50;;;;;;;-144.27;100.00;69759.91;2066170;28;20997;-79
2022/07/31 03:46:47;;;;;;;6.90;6.40;;;;;;;-144.27;100.00;69759.91;2065813;28;20946;-79
2022/07/31 03:47:49;;;;;;;7.15;6.47;;;;;;;-144.27;100.00;69759.91;2059000;28;20449;-78
2022/07/31 03:48:50;;;;;;;7.00;6.60;;;;;;;-144.27;100.00;69759.91;2050317;28;20242;-79
2022/07/31 03:49:54;;;;;;;7.23;6.63;;;;;;;-144.27;100.00;69759.91;2050580;28;20992;-79
2022/07/31 03:50:55;;;;;;;7.33;6.93;;;;;;;-144.27;100.00;69759.91;2049824;28;20450;-78
2022/07/31 03:51:59;;;;;;;7.23;6.67;;;;;;;-144.27;100.00;69759.91;2050254;28;20878;-78
2022/07/31 03:53:01;;;;;;;7.33;6.77;;;;;;;-144.27;100.00;69759.91;2050620;28;20458;-79
2022/07/31 03:54:03;;;;;;;7.07;6.57;;;;;;;-144.27;100.00;69759.91;2058160;28;20445;-79
2022/07/31 03:55:13;;;;;;;6.80;6.30;;;;;;;-144.27;100.00;69759.91;2058351;28;20497;-78
2022/07/31 03:56:16;;;;;;;7.03;6.63;;;;;;;-144.27;100.00;69759.91;2058191;28;20460;-78
2022/07/31 03:57:17;;;;;;;7.40;6.73;;;;;;;-144.27;100.00;69759.91;2050322;28;20747;-79
2022/07/31 03:58:24;;;;;;;6.83;6.40;;;;;;;-144.27;100.00;69759.91;2050254;28;20442;-79
2022/07/31 03:59:27;;;;;;;6.90;6.50;;;;;;;-144.27;100.00;69759.91;2050752;28;20457;-78
2022/07/31 04:00:31;;;;;;;7.27;6.77;;;;;;;-144.27;100.00;69759.91;2050426;28;20446;-79
2022/07/31 04:01:34;;;;;;;7.23;6.77;;;;;;;-144.27;100.00;69759.91;2050755;28;20461;-78
2022/07/31 04:02:38;;;;;;;7.27;6.80;;;;;;;-144.27;100.00;69759.91;2050301;28;20450;-78
2022/07/31 04:03:57;;;;;;;7.07;6.67;;;;;;;-144.27;100.00;69759.91;2052604;28;20896;-79
2022/07/31 04:05:27;;;;;;;7.05;6.60;;;;;;;-144.27;100.00;69759.91;2058185;28;20452;-78
2022/07/31 04:06:28;;;;;;;6.63;6.23;;;;;;;-144.27;100.00;69759.91;2050183;28;20218;-79
2022/07/31 04:07:31;;;;;;;7.00;6.60;;;;;;;-144.27;100.00;69759.91;2050109;28;20458;-79
2022/07/31 04:08:32;;;;;;;7.33;6.87;;;;;;;-144.27;100.00;69759.91;2049992;28;20524;-79
2022/07/31 04:09:34;;;;;;;7.43;6.93;;;;;;;-144.27;100.00;69759.91;2058277;28;21038;-79
2022/07/31 04:10:36;;;;;;;7.30;6.90;;;;;;;-144.27;100.00;69759.91;2065783;28;20452;-78
2022/07/31 04:11:38;;;;;;;7.60;7.20;;;;;;;-144.27;100.00;69759.91;2050175;28;20449;-78
2022/07/31 04:12:41;;;;;;;7.13;6.63;;;;;;;-144.27;100.00;69759.91;2049989;29;20448;-78
2022/07/31 04:13:43;;;;;;;7.20;6.80;;;;;;;-144.27;100.00;69759.91;2050244;28;20541;-78
2022/07/31 04:14:45;;;;;;;6.97;6.57;;;;;;;-144.27;100.00;69759.91;2058178;28;20461;-79
2022/07/31 04:15:46;;;;;;;7.80;7.10;;;;;;;-144.27;100.00;69759.91;2065875;28;20444;-78
2022/07/31 04:16:48;;;;;;;7.30;6.90;;;;;;;-144.27;100.00;69759.91;2050013;29;20454;-78
2022/07/31 04:17:49;;;;;;;7.47;7.00;;;;;;;-144.27;100.00;69759.91;2049985;28;20205;-76
2022/07/31 04:18:58;;;;;;;7.10;6.70;;;;;;;-144.27;100.00;69759.91;2050636;28;20538;-78
2022/07/31 04:20:00;;;;;;;7.50;7.10;;;;;;;-144.27;100.00;69759.91;2050489;28;20454;-78
2022/07/31 04:21:06;;;;;;;6.93;6.53;;;;;;;-144.27;100.00;69759.91;2049440;28;20469;-77
2022/07/31 04:22:08;;;;;;;6.83;6.23;;;;;;;-144.27;100.00;69759.91;2050690;28;20450;-78
2022/07/31 04:23:11;;;;;;;7.03;6.63;;;;;;;-144.27;100.00;69759.91;2049928;28;20442;-78
2022/07/31 04:24:47;;;;;;;10.83;7.00;;;;;;;-144.27;100.00;69759.91;2058132;28;20437;-78
2022/07/31 04:26:11;;;;;;;6.80;6.40;;;;;;;-144.27;100.00;69759.91;2058646;28;20426;-79
2022/07/31 04:27:18;;;;;;;6.20;5.90;;;;;;;-144.27;100.00;69759.91;2065886;28;20542;-78
2022/07/31 04:28:20;;;;;;;6.53;6.23;;;;;;;-144.27;100.00;69759.91;2065490;28;20452;-79
2022/07/31 04:29:22;;;;;;;6.77;6.37;;;;;;;-144.27;100.00;69759.91;2065734;28;20546;-78
2022/07/31 04:30:24;;;;;;;7.37;6.70;;;;;;;-144.27;100.00;69759.91;2065990;28;20431;-79
2022/07/31 04:31:26;;;;;;;6.83;6.43;;;;;;;-144.27;100.00;69759.91;2057839;28;20884;-78
2022/07/31 04:32:28;;;;;;;6.27;5.97;;;;;;;-144.27;100.00;69759.91;2050009;28;20454;-77
2022/07/31 04:33:35;;;;;;;6.50;6.10;;;;;;;-144.27;100.00;69759.91;2051048;28;20438;-79
2022/07/31 04:34:42;;;;;;;6.53;6.00;;;;;;;-144.27;100.00;69759.91;2049594;29;20866;-79
2022/07/31 04:35:43;;;;;;;6.80;6.33;;;;;;;-144.27;100.00;69759.91;2050634;28;20198;-79
2022/07/31 04:36:46;;;;;;;7.03;6.63;;;;;;;-144.27;100.00;69759.91;2057580;28;20453;-79
2022/07/31 04:37:47;;;;;;;6.30;6.00;;;;;;;-144.27;100.00;69759.91;2066054;28;20228;-78
2022/07/31 04:38:49;;;;;;;6.60;6.30;;;;;;;-144.27;100.00;69759.91;2065882;28;20436;-79
2022/07/31 04:39:52;;;;;;;6.67;6.27;;;;;;;-144.27;100.00;69759.91;2065822;28;20532;-78
2022/07/31 04:40:55;;;;;;;6.70;6.30;;;;;;;-144.27;100.00;69759.91;2065580;28;20425;-79
2022/07/31 04:41:56;;;;;;;7.27;6.70;;;;;;;-144.27;100.00;69759.91;2065727;28;20513;-79
2022/07/31 04:43:01;;;;;;;7.07;6.63;;;;;;;-144.27;100.00;69759.91;2065689;28;20443;-79
2022/07/31 04:44:03;;;;;;;7.30;6.80;;;;;;;-144.27;100.00;69759.91;2066143;28;20531;-78
2022/07/31 04:45:17;;;;;;;6.60;6.30;;;;;;;-144.27;100.00;69759.91;2064079;28;20494;-78